Kenosha, WI

6:03 AM CDT on May 23, 2015 (GMT -0500)
Kenosha Regional | | Change Station
CLOSE
Current Station
Airport
Location: Kenosha,
Elevation: 741 ft
Nearby Weather Stations

Elev 741 ft 42.60 °N, 87.94 °W | Updated 10 minutes ago

Clear
Clear
44 °F
Feels Like 42 °F
N
4
Wind Variable Wind from SSW

Today
High -- | Low -- °F
--% Chance of Precip.
Yesterday
High -- | Low -- °F
Precip. -- in
5:22 AM 8:14 PM
Waxing Crescent, 29% visible
Pressure 30.34 in
Visibility 10.0 miles
Clouds Clear
Windchill 42 °F
Dew Point 35 °F
Humidity 71%
Rainfall 0.00 in
Snow Depth Not available.
UV 0 out of 12
Pollen 7.70 out of 12
Air Quality Not available.
Flu Activity Sporadic
METAR KENW 231053Z AUTO 21003KT 10SM CLR 07/02 A3033 RMK AO2 SLP272 T00670017 $

More Conditions Fewer Conditions

Pressure 30.34 in
Visibility 10.0 miles
Clouds Clear
Windchill 42 °F
Dew Point 35 °F
Humidity 71%
Rainfall 0.00 in
Snow Depth Not available.
UV 0 out of 12
Pollen 7.70 out of 12
Air Quality Not available.
Flu Activity Sporadic
METAR KENW 231053Z AUTO 21003KT 10SM CLR 07/02 A3033 RMK AO2 SLP272 T00670017 $

More Conditions Fewer Conditions

10-Day Weather Forecast

Almanac

Astronomy

May. 23, 2015 Rise Set
Actual Time
Civil Twilight
Nautical Twilight
Astronomical Twilight
Moon
Length of Visible Light
Length of Day
Tomorrow will be .
, % of the Moon is Illuminated

Today's Extremes

State Highs State Lows

Community

WunderPhotos

Upload Photos

1,823,409 photos uploaded!

WunderBlogs® & News

Nearby

Air Quality

  Air Quality AQ Index Pollutant
Not available.

Snow Depth

Station Depth Elevation

Earthquake Activity

City Distance Mag. Time & Date
Minimum magnitude displayed is 2.5.

Coastal Water Temperatures

Place Temperature

Stations

Nearby Weather Stations

Station Location Temp. Windchill Dew Point Humidity Wind Precip. Elev Updated Type